sensor_id;sensor_type;location;lat;lon;timestamp;P1;durP1;ratioP1;P2;durP2;ratioP2
75285;SDS011;63879;46.064;14.532;2022-12-07T07:01:45;2.60;;;1.25;;
75285;SDS011;63879;46.064;14.532;2022-12-07T07:04:11;2.88;;;1.10;;
75285;SDS011;63879;46.064;14.532;2022-12-07T07:06:36;1.93;;;0.83;;
75285;SDS011;63879;46.064;14.532;2022-12-07T07:09:02;1.70;;;1.03;;
75285;SDS011;63879;46.064;14.532;2022-12-07T07:11:27;2.65;;;1.00;;
75285;SDS011;63879;46.064;14.532;2022-12-07T07:13:53;2.15;;;1.08;;
75285;SDS011;63879;46.064;14.532;2022-12-07T07:16:18;3.17;;;1.55;;
75285;SDS011;63879;46.064;14.532;2022-12-07T07:18:44;3.00;;;1.17;;
75285;SDS011;63879;46.064;14.532;2022-12-07T07:21:09;2.40;;;1.40;;
75285;SDS011;63879;46.064;14.532;2022-12-07T07:23:34;2.33;;;1.20;;
75285;SDS011;63879;46.064;14.532;2022-12-07T07:26:00;3.40;;;1.00;;
75285;SDS011;63879;46.064;14.532;2022-12-07T07:28:25;2.47;;;1.50;;
75285;SDS011;63879;46.064;14.532;2022-12-07T07:30:51;4.20;;;1.58;;
75285;SDS011;63879;46.064;14.532;2022-12-07T07:33:16;3.22;;;1.50;;
75285;SDS011;63879;46.064;14.532;2022-12-07T07:35:42;2.97;;;1.77;;
75285;SDS011;63879;46.064;14.532;2022-12-07T07:38:08;4.63;;;2.00;;
75285;SDS011;63879;46.064;14.532;2022-12-07T07:40:33;5.15;;;2.42;;
75285;SDS011;63879;46.064;14.532;2022-12-07T07:42:59;4.15;;;2.80;;
75285;SDS011;63879;46.064;14.532;2022-12-07T07:45:25;5.47;;;2.75;;
75285;SDS011;63879;46.064;14.532;2022-12-07T07:47:51;4.43;;;3.15;;
75285;SDS011;63879;46.064;14.532;2022-12-07T07:50:17;4.43;;;2.35;;
75285;SDS011;63879;46.064;14.532;2022-12-07T07:52:43;3.70;;;2.25;;
75285;SDS011;63879;46.064;14.532;2022-12-07T07:55:09;5.18;;;3.33;;
75285;SDS011;63879;46.064;14.532;2022-12-07T07:57:35;4.75;;;2.85;;
75285;SDS011;63879;46.064;14.532;2022-12-07T08:00:03;5.68;;;2.67;;
75285;SDS011;63879;46.064;14.532;2022-12-07T08:02:30;5.03;;;2.70;;
75285;SDS011;63879;46.064;14.532;2022-12-07T08:04:55;6.78;;;3.42;;
75285;SDS011;63879;46.064;14.532;2022-12-07T08:07:21;6.70;;;3.00;;
75285;SDS011;63879;46.064;14.532;2022-12-07T08:09:46;5.90;;;3.42;;
75285;SDS011;63879;46.064;14.532;2022-12-07T08:12:12;7.43;;;4.37;;
75285;SDS011;63879;46.064;14.532;2022-12-07T08:14:37;5.53;;;2.80;;
75285;SDS011;63879;46.064;14.532;2022-12-07T08:17:02;5.38;;;2.70;;
75285;SDS011;63879;46.064;14.532;2022-12-07T08:19:28;6.77;;;2.87;;
75285;SDS011;63879;46.064;14.532;2022-12-07T08:21:53;3.85;;;2.45;;
75285;SDS011;63879;46.064;14.532;2022-12-07T08:24:20;5.90;;;2.10;;
75285;SDS011;63879;46.064;14.532;2022-12-07T08:26:45;7.57;;;2.50;;
75285;SDS011;63879;46.064;14.532;2022-12-07T08:29:11;9.73;;;2.65;;
75285;SDS011;63879;46.064;14.532;2022-12-07T08:31:36;5.60;;;2.50;;
75285;SDS011;63879;46.064;14.532;2022-12-07T08:34:01;3.83;;;2.00;;
75285;SDS011;63879;46.064;14.532;2022-12-07T08:36:27;3.67;;;2.22;;
75285;SDS011;63879;46.064;14.532;2022-12-07T08:38:53;3.67;;;2.22;;
75285;SDS011;63879;46.064;14.532;2022-12-07T08:41:19;5.53;;;2.28;;
75285;SDS011;63879;46.064;14.532;2022-12-07T08:43:44;4.80;;;1.60;;
75285;SDS011;63879;46.064;14.532;2022-12-07T08:46:11;5.23;;;1.87;;
75285;SDS011;63879;46.064;14.532;2022-12-07T08:53:54;3.38;;;1.50;;
75285;SDS011;63879;46.064;14.532;2022-12-07T08:56:21;4.25;;;1.63;;
75285;SDS011;63879;46.064;14.532;2022-12-07T08:58:46;3.80;;;2.08;;
75285;SDS011;63879;46.064;14.532;2022-12-07T09:01:12;4.32;;;2.10;;
75285;SDS011;63879;46.064;14.532;2022-12-07T09:03:37;2.83;;;1.45;;
75285;SDS011;63879;46.064;14.532;2022-12-07T09:06:03;3.40;;;1.90;;
75285;SDS011;63879;46.064;14.532;2022-12-07T09:08:30;3.40;;;1.85;;
75285;SDS011;63879;46.064;14.532;2022-12-07T09:10:57;3.83;;;2.10;;
75285;SDS011;63879;46.064;14.532;2022-12-07T09:13:22;3.93;;;2.13;;
75285;SDS011;63879;46.064;14.532;2022-12-07T09:15:48;3.08;;;1.52;;
75285;SDS011;63879;46.064;14.532;2022-12-07T09:18:13;3.38;;;1.83;;
75285;SDS011;63879;46.064;14.532;2022-12-07T09:20:39;3.55;;;2.13;;
75285;SDS011;63879;46.064;14.532;2022-12-07T09:23:07;4.50;;;2.33;;
75285;SDS011;63879;46.064;14.532;2022-12-07T09:25:33;7.30;;;2.83;;
75285;SDS011;63879;46.064;14.532;2022-12-07T09:27:59;2.75;;;1.90;;
75285;SDS011;63879;46.064;14.532;2022-12-07T09:30:25;3.53;;;1.90;;
75285;SDS011;63879;46.064;14.532;2022-12-07T09:32:52;4.53;;;2.30;;
75285;SDS011;63879;46.064;14.532;2022-12-07T09:35:19;4.30;;;2.13;;
75285;SDS011;63879;46.064;14.532;2022-12-07T09:37:44;7.13;;;2.00;;
75285;SDS011;63879;46.064;14.532;2022-12-07T09:40:10;4.22;;;2.35;;
75285;SDS011;63879;46.064;14.532;2022-12-07T09:42:37;4.05;;;2.55;;
75285;SDS011;63879;46.064;14.532;2022-12-07T09:45:05;5.78;;;2.60;;
75285;SDS011;63879;46.064;14.532;2022-12-07T09:47:32;5.70;;;3.10;;
75285;SDS011;63879;46.064;14.532;2022-12-07T09:50:00;5.30;;;3.05;;
75285;SDS011;63879;46.064;14.532;2022-12-07T09:52:31;4.85;;;3.22;;
75285;SDS011;63879;46.064;14.532;2022-12-07T09:54:57;6.97;;;4.38;;
75285;SDS011;63879;46.064;14.532;2022-12-07T09:57:30;7.80;;;4.32;;
75285;SDS011;63879;46.064;14.532;2022-12-07T09:59:58;7.47;;;4.13;;
75285;SDS011;63879;46.064;14.532;2022-12-07T10:04:57;6.45;;;3.88;;
75285;SDS011;63879;46.064;14.532;2022-12-07T10:07:23;6.55;;;3.60;;
75285;SDS011;63879;46.064;14.532;2022-12-07T10:09:49;5.20;;;3.58;;
75285;SDS011;63879;46.064;14.532;2022-12-07T10:12:15;15.52;;;5.20;;
75285;SDS011;63879;46.064;14.532;2022-12-07T10:14:53;7.00;;;4.07;;
75285;SDS011;63879;46.064;14.532;2022-12-07T10:17:31;6.55;;;4.00;;
75285;SDS011;63879;46.064;14.532;2022-12-07T10:20:12;6.28;;;3.30;;
75285;SDS011;63879;46.064;14.532;2022-12-07T10:25:24;7.65;;;4.00;;
75285;SDS011;63879;46.064;14.532;2022-12-07T10:28:03;7.78;;;4.47;;
75285;SDS011;63879;46.064;14.532;2022-12-07T10:35:56;8.88;;;5.15;;
75285;SDS011;63879;46.064;14.532;2022-12-07T10:38:22;8.30;;;5.35;;
75285;SDS011;63879;46.064;14.532;2022-12-07T10:40:54;9.18;;;5.90;;
75285;SDS011;63879;46.064;14.532;2022-12-07T10:43:28;10.02;;;5.93;;
75285;SDS011;63879;46.064;14.532;2022-12-07T11:05:11;10.20;;;6.35;;
75285;SDS011;63879;46.064;14.532;2022-12-07T11:18:22;11.20;;;6.78;;
75285;SDS011;63879;46.064;14.532;2022-12-07T11:21:00;11.68;;;6.72;;
75285;SDS011;63879;46.064;14.532;2022-12-07T11:23:46;9.45;;;5.75;;
75285;SDS011;63879;46.064;14.532;2022-12-07T11:26:36;9.52;;;6.93;;
75285;SDS011;63879;46.064;14.532;2022-12-07T11:31:54;13.77;;;6.90;;
75285;SDS011;63879;46.064;14.532;2022-12-07T11:37:25;9.60;;;6.25;;
75285;SDS011;63879;46.064;14.532;2022-12-07T11:39:59;10.93;;;6.15;;
75285;SDS011;63879;46.064;14.532;2022-12-07T11:42:29;8.88;;;5.32;;
75285;SDS011;63879;46.064;14.532;2022-12-07T11:45:00;11.27;;;5.45;;
75285;SDS011;63879;46.064;14.532;2022-12-07T11:53:19;8.10;;;5.60;;
75285;SDS011;63879;46.064;14.532;2022-12-07T12:03:41;9.82;;;5.93;;
75285;SDS011;63879;46.064;14.532;2022-12-07T12:06:09;10.40;;;6.38;;
75285;SDS011;63879;46.064;14.532;2022-12-07T12:08:46;10.97;;;6.53;;
75285;SDS011;63879;46.064;14.532;2022-12-07T12:19:25;11.00;;;6.22;;
75285;SDS011;63879;46.064;14.532;2022-12-07T12:21:57;15.50;;;7.35;;
75285;SDS011;63879;46.064;14.532;2022-12-07T12:24:29;12.27;;;6.75;;
75285;SDS011;63879;46.064;14.532;2022-12-07T12:27:08;11.15;;;6.72;;
75285;SDS011;63879;46.064;14.532;2022-12-07T12:29:40;11.68;;;7.07;;
75285;SDS011;63879;46.064;14.532;2022-12-07T12:32:07;11.85;;;7.63;;
75285;SDS011;63879;46.064;14.532;2022-12-07T12:34:41;13.55;;;6.80;;
75285;SDS011;63879;46.064;14.532;2022-12-07T12:42:51;13.00;;;6.93;;
75285;SDS011;63879;46.064;14.532;2022-12-07T12:47:57;11.35;;;7.40;;
75285;SDS011;63879;46.064;14.532;2022-12-07T12:55:27;9.68;;;5.90;;
75285;SDS011;63879;46.064;14.532;2022-12-07T13:00:43;11.32;;;6.97;;
75285;SDS011;63879;46.064;14.532;2022-12-07T13:03:28;11.77;;;6.72;;
75285;SDS011;63879;46.064;14.532;2022-12-07T13:08:51;11.23;;;6.45;;
75285;SDS011;63879;46.064;14.532;2022-12-07T13:11:29;10.55;;;5.88;;
75285;SDS011;63879;46.064;14.532;2022-12-07T13:17:07;10.45;;;6.00;;
75285;SDS011;63879;46.064;14.532;2022-12-07T13:22:50;11.27;;;6.75;;
75285;SDS011;63879;46.064;14.532;2022-12-07T13:24:59;12.95;;;7.65;;
75285;SDS011;63879;46.064;14.532;2022-12-07T13:27:30;13.73;;;8.13;;
75285;SDS011;63879;46.064;14.532;2022-12-07T13:29:56;11.65;;;7.03;;
75285;SDS011;63879;46.064;14.532;2022-12-07T13:32:25;12.50;;;7.38;;
75285;SDS011;63879;46.064;14.532;2022-12-07T13:34:52;13.25;;;7.40;;
75285;SDS011;63879;46.064;14.532;2022-12-07T13:39:47;14.65;;;7.80;;
75285;SDS011;63879;46.064;14.532;2022-12-07T13:42:18;17.20;;;8.35;;
75285;SDS011;63879;46.064;14.532;2022-12-07T13:44:50;17.20;;;7.82;;
75285;SDS011;63879;46.064;14.532;2022-12-07T13:49:55;17.27;;;8.73;;
75285;SDS011;63879;46.064;14.532;2022-12-07T13:52:25;12.48;;;7.30;;
75285;SDS011;63879;46.064;14.532;2022-12-07T13:54:56;12.88;;;7.35;;
75285;SDS011;63879;46.064;14.532;2022-12-07T13:57:27;13.10;;;6.63;;
75285;SDS011;63879;46.064;14.532;2022-12-07T13:59:54;10.43;;;6.05;;
75285;SDS011;63879;46.064;14.532;2022-12-07T14:02:25;13.45;;;7.28;;
75285;SDS011;63879;46.064;14.532;2022-12-07T14:04:51;15.40;;;7.75;;
75285;SDS011;63879;46.064;14.532;2022-12-07T14:07:27;12.93;;;7.63;;
75285;SDS011;63879;46.064;14.532;2022-12-07T14:10:39;12.60;;;6.82;;
75285;SDS011;63879;46.064;14.532;2022-12-07T14:12:49;11.23;;;6.35;;
75285;SDS011;63879;46.064;14.532;2022-12-07T14:15:19;11.73;;;7.10;;
75285;SDS011;63879;46.064;14.532;2022-12-07T14:17:50;12.70;;;7.15;;
75285;SDS011;63879;46.064;14.532;2022-12-07T14:20:30;18.05;;;7.15;;
75285;SDS011;63879;46.064;14.532;2022-12-07T14:23:01;13.25;;;7.65;;
75285;SDS011;63879;46.064;14.532;2022-12-07T14:25:43;12.50;;;7.07;;
75285;SDS011;63879;46.064;14.532;2022-12-07T14:28:24;15.07;;;7.22;;
75285;SDS011;63879;46.064;14.532;2022-12-07T14:30:53;14.60;;;7.50;;
75285;SDS011;63879;46.064;14.532;2022-12-07T14:33:19;15.05;;;8.25;;
75285;SDS011;63879;46.064;14.532;2022-12-07T14:35:44;14.38;;;7.85;;
75285;SDS011;63879;46.064;14.532;2022-12-07T14:38:10;14.97;;;7.40;;
75285;SDS011;63879;46.064;14.532;2022-12-07T14:40:35;15.77;;;8.13;;
75285;SDS011;63879;46.064;14.532;2022-12-07T14:43:01;12.93;;;8.20;;
75285;SDS011;63879;46.064;14.532;2022-12-07T14:45:29;16.73;;;8.55;;
75285;SDS011;63879;46.064;14.532;2022-12-07T14:47:55;16.20;;;9.77;;
75285;SDS011;63879;46.064;14.532;2022-12-07T14:50:21;16.17;;;8.35;;
75285;SDS011;63879;46.064;14.532;2022-12-07T14:53:09;17.25;;;8.82;;
75285;SDS011;63879;46.064;14.532;2022-12-07T14:55:37;13.55;;;7.20;;
75285;SDS011;63879;46.064;14.532;2022-12-07T14:58:03;14.55;;;8.55;;
75285;SDS011;63879;46.064;14.532;2022-12-07T15:00:28;15.10;;;7.80;;
75285;SDS011;63879;46.064;14.532;2022-12-07T15:02:54;12.95;;;7.40;;
75285;SDS011;63879;46.064;14.532;2022-12-07T15:05:20;16.65;;;8.90;;
75285;SDS011;63879;46.064;14.532;2022-12-07T15:07:46;14.40;;;8.25;;
75285;SDS011;63879;46.064;14.532;2022-12-07T15:10:13;15.10;;;8.20;;
75285;SDS011;63879;46.064;14.532;2022-12-07T15:12:49;15.35;;;8.30;;
75285;SDS011;63879;46.064;14.532;2022-12-07T15:15:15;14.02;;;7.53;;
75285;SDS011;63879;46.064;14.532;2022-12-07T15:17:42;12.82;;;7.97;;
75285;SDS011;63879;46.064;14.532;2022-12-07T15:20:16;16.02;;;7.63;;
75285;SDS011;63879;46.064;14.532;2022-12-07T15:22:42;15.00;;;8.52;;
75285;SDS011;63879;46.064;14.532;2022-12-07T15:25:08;16.02;;;7.43;;
75285;SDS011;63879;46.064;14.532;2022-12-07T15:27:34;13.00;;;7.85;;
75285;SDS011;63879;46.064;14.532;2022-12-07T15:29:59;12.55;;;7.43;;
75285;SDS011;63879;46.064;14.532;2022-12-07T15:32:24;13.40;;;7.17;;
75285;SDS011;63879;46.064;14.532;2022-12-07T15:34:50;12.27;;;6.53;;
75285;SDS011;63879;46.064;14.532;2022-12-07T15:37:15;15.33;;;6.73;;
75285;SDS011;63879;46.064;14.532;2022-12-07T15:39:40;13.60;;;7.25;;
75285;SDS011;63879;46.064;14.532;2022-12-07T15:42:06;13.70;;;6.63;;
75285;SDS011;63879;46.064;14.532;2022-12-07T15:44:31;11.45;;;6.45;;
75285;SDS011;63879;46.064;14.532;2022-12-07T15:47:15;13.65;;;7.80;;
75285;SDS011;63879;46.064;14.532;2022-12-07T15:49:41;12.15;;;6.63;;
75285;SDS011;63879;46.064;14.532;2022-12-07T15:52:06;12.43;;;7.60;;
75285;SDS011;63879;46.064;14.532;2022-12-07T15:54:31;11.77;;;7.00;;
75285;SDS011;63879;46.064;14.532;2022-12-07T15:56:57;11.68;;;7.22;;
75285;SDS011;63879;46.064;14.532;2022-12-07T15:59:23;13.45;;;7.65;;
75285;SDS011;63879;46.064;14.532;2022-12-07T16:01:48;11.10;;;6.95;;
75285;SDS011;63879;46.064;14.532;2022-12-07T16:04:14;13.15;;;7.15;;
75285;SDS011;63879;46.064;14.532;2022-12-07T16:06:39;12.77;;;7.57;;
75285;SDS011;63879;46.064;14.532;2022-12-07T16:09:05;12.40;;;7.80;;
75285;SDS011;63879;46.064;14.532;2022-12-07T16:11:31;11.50;;;6.90;;
75285;SDS011;63879;46.064;14.532;2022-12-07T16:13:56;12.23;;;7.20;;
75285;SDS011;63879;46.064;14.532;2022-12-07T16:16:22;12.27;;;7.17;;
75285;SDS011;63879;46.064;14.532;2022-12-07T16:18:47;13.98;;;6.82;;
75285;SDS011;63879;46.064;14.532;2022-12-07T16:21:14;15.27;;;7.70;;
75285;SDS011;63879;46.064;14.532;2022-12-07T16:23:40;12.38;;;6.78;;
75285;SDS011;63879;46.064;14.532;2022-12-07T16:26:08;12.18;;;7.38;;
75285;SDS011;63879;46.064;14.532;2022-12-07T16:28:35;12.20;;;7.72;;
75285;SDS011;63879;46.064;14.532;2022-12-07T16:31:02;12.50;;;7.17;;
75285;SDS011;63879;46.064;14.532;2022-12-07T16:33:28;14.82;;;8.43;;
75285;SDS011;63879;46.064;14.532;2022-12-07T16:35:54;13.17;;;7.73;;
75285;SDS011;63879;46.064;14.532;2022-12-07T16:38:19;15.07;;;8.50;;
75285;SDS011;63879;46.064;14.532;2022-12-07T16:40:46;13.67;;;8.47;;
75285;SDS011;63879;46.064;14.532;2022-12-07T16:43:12;14.75;;;8.35;;
75285;SDS011;63879;46.064;14.532;2022-12-07T16:45:38;14.45;;;8.40;;
75285;SDS011;63879;46.064;14.532;2022-12-07T16:48:04;15.87;;;9.00;;
75285;SDS011;63879;46.064;14.532;2022-12-07T16:50:29;14.38;;;8.05;;
75285;SDS011;63879;46.064;14.532;2022-12-07T16:52:55;14.93;;;9.20;;
75285;SDS011;63879;46.064;14.532;2022-12-07T16:55:20;15.47;;;8.33;;
75285;SDS011;63879;46.064;14.532;2022-12-07T16:57:45;15.75;;;8.43;;
75285;SDS011;63879;46.064;14.532;2022-12-07T17:00:11;16.95;;;9.05;;
75285;SDS011;63879;46.064;14.532;2022-12-07T17:02:36;15.70;;;9.02;;
75285;SDS011;63879;46.064;14.532;2022-12-07T17:05:02;16.03;;;9.30;;
75285;SDS011;63879;46.064;14.532;2022-12-07T17:07:27;19.02;;;11.55;;
75285;SDS011;63879;46.064;14.532;2022-12-07T17:09:53;15.50;;;9.57;;
75285;SDS011;63879;46.064;14.532;2022-12-07T17:12:18;17.92;;;9.88;;
75285;SDS011;63879;46.064;14.532;2022-12-07T17:14:44;17.13;;;11.03;;
75285;SDS011;63879;46.064;14.532;2022-12-07T17:17:28;18.25;;;10.45;;
75285;SDS011;63879;46.064;14.532;2022-12-07T17:19:53;18.95;;;11.45;;
75285;SDS011;63879;46.064;14.532;2022-12-07T17:22:19;18.48;;;9.68;;
75285;SDS011;63879;46.064;14.532;2022-12-07T17:24:44;16.75;;;9.88;;
75285;SDS011;63879;46.064;14.532;2022-12-07T17:27:09;17.63;;;10.43;;
75285;SDS011;63879;46.064;14.532;2022-12-07T17:29:35;19.30;;;10.95;;
75285;SDS011;63879;46.064;14.532;2022-12-07T17:32:00;18.92;;;10.60;;
75285;SDS011;63879;46.064;14.532;2022-12-07T17:34:26;18.50;;;10.90;;
75285;SDS011;63879;46.064;14.532;2022-12-07T17:36:51;23.33;;;10.73;;
75285;SDS011;63879;46.064;14.532;2022-12-07T17:39:17;19.25;;;11.13;;
75285;SDS011;63879;46.064;14.532;2022-12-07T17:41:43;18.13;;;10.82;;
75285;SDS011;63879;46.064;14.532;2022-12-07T17:44:27;18.95;;;10.40;;
75285;SDS011;63879;46.064;14.532;2022-12-07T17:46:53;19.75;;;11.40;;
75285;SDS011;63879;46.064;14.532;2022-12-07T17:49:26;18.83;;;10.88;;
75285;SDS011;63879;46.064;14.532;2022-12-07T17:51:52;21.38;;;11.85;;
75285;SDS011;63879;46.064;14.532;2022-12-07T17:54:36;18.55;;;10.93;;
75285;SDS011;63879;46.064;14.532;2022-12-07T17:57:06;18.10;;;10.73;;
75285;SDS011;63879;46.064;14.532;2022-12-07T17:59:32;18.55;;;10.32;;
75285;SDS011;63879;46.064;14.532;2022-12-07T18:01:58;14.52;;;9.63;;
75285;SDS011;63879;46.064;14.532;2022-12-07T18:04:23;16.20;;;9.88;;
75285;SDS011;63879;46.064;14.532;2022-12-07T18:06:48;17.33;;;9.90;;
75285;SDS011;63879;46.064;14.532;2022-12-07T18:09:14;19.85;;;10.93;;
75285;SDS011;63879;46.064;14.532;2022-12-07T18:11:39;18.13;;;10.70;;
75285;SDS011;63879;46.064;14.532;2022-12-07T18:14:05;17.00;;;9.73;;
75285;SDS011;63879;46.064;14.532;2022-12-07T18:16:34;19.73;;;10.80;;
75285;SDS011;63879;46.064;14.532;2022-12-07T18:19:03;17.80;;;10.43;;
75285;SDS011;63879;46.064;14.532;2022-12-07T18:21:29;14.95;;;9.68;;
75285;SDS011;63879;46.064;14.532;2022-12-07T18:23:56;17.77;;;10.48;;
75285;SDS011;63879;46.064;14.532;2022-12-07T18:26:25;16.40;;;10.73;;
75285;SDS011;63879;46.064;14.532;2022-12-07T18:28:50;16.10;;;9.07;;
75285;SDS011;63879;46.064;14.532;2022-12-07T18:31:16;16.52;;;9.20;;
75285;SDS011;63879;46.064;14.532;2022-12-07T18:33:42;13.55;;;8.38;;
75285;SDS011;63879;46.064;14.532;2022-12-07T18:36:08;15.13;;;8.25;;
75285;SDS011;63879;46.064;14.532;2022-12-07T18:38:34;14.63;;;8.68;;
75285;SDS011;63879;46.064;14.532;2022-12-07T18:41:01;15.30;;;9.45;;
75285;SDS011;63879;46.064;14.532;2022-12-07T18:43:27;17.77;;;9.35;;
75285;SDS011;63879;46.064;14.532;2022-12-07T18:45:52;15.30;;;9.57;;
75285;SDS011;63879;46.064;14.532;2022-12-07T18:48:18;14.63;;;8.90;;
75285;SDS011;63879;46.064;14.532;2022-12-07T18:50:45;15.23;;;8.55;;
75285;SDS011;63879;46.064;14.532;2022-12-07T18:53:11;17.02;;;9.10;;
75285;SDS011;63879;46.064;14.532;2022-12-07T18:55:36;16.67;;;9.25;;
75285;SDS011;63879;46.064;14.532;2022-12-07T18:58:02;16.50;;;9.55;;
75285;SDS011;63879;46.064;14.532;2022-12-07T19:00:28;15.52;;;8.90;;
75285;SDS011;63879;46.064;14.532;2022-12-07T19:02:59;16.25;;;8.85;;
75285;SDS011;63879;46.064;14.532;2022-12-07T19:05:29;14.93;;;8.65;;
75285;SDS011;63879;46.064;14.532;2022-12-07T19:07:55;15.13;;;8.88;;
75285;SDS011;63879;46.064;14.532;2022-12-07T19:10:20;14.40;;;8.27;;
75285;SDS011;63879;46.064;14.532;2022-12-07T19:12:46;15.32;;;9.27;;
75285;SDS011;63879;46.064;14.532;2022-12-07T19:15:13;13.18;;;8.32;;
75285;SDS011;63879;46.064;14.532;2022-12-07T19:17:39;14.95;;;8.75;;
75285;SDS011;63879;46.064;14.532;2022-12-07T19:20:08;13.55;;;9.05;;
75285;SDS011;63879;46.064;14.532;2022-12-07T19:22:36;13.27;;;7.95;;
75285;SDS011;63879;46.064;14.532;2022-12-07T19:25:02;15.57;;;8.60;;
75285;SDS011;63879;46.064;14.532;2022-12-07T19:27:28;14.95;;;8.07;;
75285;SDS011;63879;46.064;14.532;2022-12-07T19:29:56;12.50;;;8.23;;
75285;SDS011;63879;46.064;14.532;2022-12-07T19:32:21;14.52;;;8.80;;
75285;SDS011;63879;46.064;14.532;2022-12-07T19:34:47;15.10;;;8.27;;
75285;SDS011;63879;46.064;14.532;2022-12-07T19:37:12;14.18;;;8.30;;
75285;SDS011;63879;46.064;14.532;2022-12-07T19:39:43;14.68;;;8.40;;
75285;SDS011;63879;46.064;14.532;2022-12-07T19:42:10;15.02;;;9.20;;
75285;SDS011;63879;46.064;14.532;2022-12-07T19:44:36;15.38;;;8.43;;
75285;SDS011;63879;46.064;14.532;2022-12-07T19:47:02;15.82;;;9.27;;
75285;SDS011;63879;46.064;14.532;2022-12-07T19:49:31;16.23;;;9.38;;
75285;SDS011;63879;46.064;14.532;2022-12-07T19:51:59;16.60;;;9.27;;
75285;SDS011;63879;46.064;14.532;2022-12-07T19:54:28;14.75;;;8.85;;
75285;SDS011;63879;46.064;14.532;2022-12-07T19:56:54;13.77;;;9.13;;
75285;SDS011;63879;46.064;14.532;2022-12-07T19:59:21;16.90;;;10.50;;
75285;SDS011;63879;46.064;14.532;2022-12-07T20:01:48;17.83;;;10.15;;
75285;SDS011;63879;46.064;14.532;2022-12-07T20:04:15;14.82;;;9.50;;
75285;SDS011;63879;46.064;14.532;2022-12-07T20:06:42;18.40;;;10.15;;
75285;SDS011;63879;46.064;14.532;2022-12-07T20:09:08;16.27;;;9.73;;
75285;SDS011;63879;46.064;14.532;2022-12-07T20:11:34;16.85;;;9.77;;
75285;SDS011;63879;46.064;14.532;2022-12-07T20:14:18;18.90;;;10.50;;
75285;SDS011;63879;46.064;14.532;2022-12-07T20:16:44;19.40;;;11.80;;
75285;SDS011;63879;46.064;14.532;2022-12-07T20:19:10;20.48;;;11.70;;
75285;SDS011;63879;46.064;14.532;2022-12-07T20:21:38;19.98;;;11.15;;
75285;SDS011;63879;46.064;14.532;2022-12-07T20:24:04;21.10;;;12.15;;
75285;SDS011;63879;46.064;14.532;2022-12-07T20:26:32;22.15;;;12.27;;
75285;SDS011;63879;46.064;14.532;2022-12-07T20:28:58;18.63;;;11.68;;
75285;SDS011;63879;46.064;14.532;2022-12-07T20:31:24;18.23;;;12.05;;
75285;SDS011;63879;46.064;14.532;2022-12-07T20:33:49;17.75;;;11.27;;
75285;SDS011;63879;46.064;14.532;2022-12-07T20:36:15;20.80;;;11.77;;
75285;SDS011;63879;46.064;14.532;2022-12-07T20:38:42;24.80;;;14.05;;
75285;SDS011;63879;46.064;14.532;2022-12-07T20:41:09;23.20;;;14.50;;
75285;SDS011;63879;46.064;14.532;2022-12-07T20:43:55;20.23;;;11.20;;
75285;SDS011;63879;46.064;14.532;2022-12-07T20:46:21;20.40;;;12.57;;
75285;SDS011;63879;46.064;14.532;2022-12-07T20:48:46;21.65;;;12.82;;
75285;SDS011;63879;46.064;14.532;2022-12-07T20:51:12;16.15;;;10.98;;
75285;SDS011;63879;46.064;14.532;2022-12-07T20:53:37;17.70;;;9.97;;
75285;SDS011;63879;46.064;14.532;2022-12-07T20:56:04;18.92;;;10.98;;
75285;SDS011;63879;46.064;14.532;2022-12-07T20:58:29;16.00;;;10.18;;
75285;SDS011;63879;46.064;14.532;2022-12-07T21:01:01;17.20;;;9.63;;
75285;SDS011;63879;46.064;14.532;2022-12-07T21:03:27;17.17;;;10.40;;
75285;SDS011;63879;46.064;14.532;2022-12-07T21:05:52;17.90;;;10.80;;
75285;SDS011;63879;46.064;14.532;2022-12-07T21:08:18;18.43;;;11.27;;
75285;SDS011;63879;46.064;14.532;2022-12-07T21:10:43;19.30;;;11.57;;
75285;SDS011;63879;46.064;14.532;2022-12-07T21:13:08;21.25;;;13.10;;
75285;SDS011;63879;46.064;14.532;2022-12-07T21:15:36;21.33;;;11.00;;
75285;SDS011;63879;46.064;14.532;2022-12-07T21:18:02;17.77;;;10.88;;
75285;SDS011;63879;46.064;14.532;2022-12-07T21:20:28;15.82;;;9.63;;
75285;SDS011;63879;46.064;14.532;2022-12-07T21:22:53;15.73;;;10.87;;
75285;SDS011;63879;46.064;14.532;2022-12-07T21:25:18;17.40;;;10.20;;
75285;SDS011;63879;46.064;14.532;2022-12-07T21:27:44;18.87;;;10.40;;
75285;SDS011;63879;46.064;14.532;2022-12-07T21:30:09;16.47;;;9.80;;
75285;SDS011;63879;46.064;14.532;2022-12-07T21:32:35;18.88;;;10.25;;
75285;SDS011;63879;46.064;14.532;2022-12-07T21:35:00;19.33;;;10.82;;
75285;SDS011;63879;46.064;14.532;2022-12-07T21:37:26;16.53;;;10.27;;
75285;SDS011;63879;46.064;14.532;2022-12-07T21:39:51;15.35;;;10.00;;
75285;SDS011;63879;46.064;14.532;2022-12-07T21:42:16;15.87;;;9.43;;
75285;SDS011;63879;46.064;14.532;2022-12-07T21:44:42;20.00;;;10.03;;
75285;SDS011;63879;46.064;14.532;2022-12-07T21:47:07;18.23;;;10.18;;
75285;SDS011;63879;46.064;14.532;2022-12-07T21:49:33;18.00;;;12.15;;
75285;SDS011;63879;46.064;14.532;2022-12-07T21:52:00;20.75;;;12.60;;
75285;SDS011;63879;46.064;14.532;2022-12-07T21:54:25;18.40;;;10.47;;
75285;SDS011;63879;46.064;14.532;2022-12-07T21:56:50;18.80;;;11.30;;
75285;SDS011;63879;46.064;14.532;2022-12-07T21:59:16;17.15;;;10.45;;
